Time;durP1;ratioP1;P1;durP2;ratioP2;P2;SDS_P1;SDS_P2;PMS_P1;PMS_P2;Temp;Humidity;BMP_temperature;BMP_pressure;BME280_temperature;BME280_humidity;BME280_pressure;Samples;Min_cycle;Max_cycle;Signal;HPM_P1;HPM_P2
2023/12/29 00:00:54;;;;;;;3.80;1.45;;;;;;;;;;5072928;28;20542;-62
2023/12/29 00:03:19;;;;;;;3.90;1.40;;;;;;;;;;5073171;28;20020;-62
2023/12/29 00:05:44;;;;;;;4.43;1.50;;;;;;;;;;5073548;28;20036;-64
2023/12/29 00:08:09;;;;;;;6.28;2.08;;;;;;;;;;5066032;28;20047;-62
2023/12/29 00:10:34;;;;;;;5.13;1.80;;;;;;;;;;5072599;28;20031;-64
2023/12/29 00:12:59;;;;;;;5.40;2.10;;;;;;;;;;5073353;28;20163;-64
2023/12/29 00:15:25;;;;;;;5.00;2.05;;;;;;;;;;5073377;28;20024;-63
2023/12/29 00:17:50;;;;;;;6.18;2.78;;;;;;;;;;5071721;28;20031;-64
2023/12/29 00:20:15;;;;;;;6.87;2.70;;;;;;;;;;5073075;28;20496;-65
2023/12/29 00:22:40;;;;;;;7.63;3.35;;;;;;;;;;5071928;28;20023;-62
2023/12/29 00:25:08;;;;;;;7.10;2.77;;;;;;;;;;5073583;28;20067;-64
2023/12/29 00:27:35;;;;;;;9.07;2.90;;;;;;;;;;5070556;28;20417;-64
2023/12/29 00:30:00;;;;;;;6.63;3.00;;;;;;;;;;5068210;28;20103;-63
2023/12/29 00:32:25;;;;;;;7.88;3.03;;;;;;;;;;5072331;28;20096;-64
2023/12/29 00:34:51;;;;;;;7.07;3.30;;;;;;;;;;5072193;28;20578;-63
2023/12/29 00:37:16;;;;;;;8.02;3.33;;;;;;;;;;5072637;28;20361;-63
2023/12/29 00:39:41;;;;;;;9.38;3.63;;;;;;;;;;5071360;28;20507;-64
2023/12/29 00:42:06;;;;;;;8.10;3.50;;;;;;;;;;5071868;28;20024;-64
2023/12/29 00:44:32;;;;;;;6.70;2.83;;;;;;;;;;5069889;28;20361;-64
2023/12/29 00:46:57;;;;;;;6.35;2.70;;;;;;;;;;5062454;28;20131;-64
2023/12/29 00:49:22;;;;;;;6.85;3.25;;;;;;;;;;5061684;28;20443;-64
2023/12/29 00:51:48;;;;;;;6.22;2.97;;;;;;;;;;5071408;28;20031;-64
2023/12/29 00:54:13;;;;;;;8.30;3.10;;;;;;;;;;5070613;28;20025;-64
2023/12/29 00:56:38;;;;;;;6.93;2.90;;;;;;;;;;5060775;28;20024;-64
2023/12/29 00:59:03;;;;;;;7.07;3.13;;;;;;;;;;5071289;28;20108;-64
2023/12/29 01:01:32;;;;;;;7.03;3.27;;;;;;;;;;5068296;28;20025;-62
2023/12/29 01:03:57;;;;;;;6.53;2.65;;;;;;;;;;5054203;28;20025;-62
2023/12/29 01:06:23;;;;;;;6.18;2.33;;;;;;;;;;5059313;28;20017;-62
2023/12/29 01:08:48;;;;;;;4.65;2.20;;;;;;;;;;5070698;28;20029;-62
2023/12/29 01:11:13;;;;;;;6.30;2.22;;;;;;;;;;5070973;28;20144;-63
2023/12/29 01:13:38;;;;;;;7.70;2.70;;;;;;;;;;5071571;28;20013;-63
2023/12/29 01:16:04;;;;;;;8.07;3.10;;;;;;;;;;5071810;28;20119;-63
2023/12/29 01:18:29;;;;;;;8.10;3.70;;;;;;;;;;5065697;28;20015;-62
2023/12/29 01:20:54;;;;;;;7.85;3.55;;;;;;;;;;5071175;28;20512;-63
2023/12/29 01:23:19;;;;;;;6.90;3.40;;;;;;;;;;5065575;28;20045;-63
2023/12/29 01:25:44;;;;;;;7.20;3.13;;;;;;;;;;5050283;28;20120;-64
2023/12/29 01:28:10;;;;;;;10.40;3.20;;;;;;;;;;5055788;28;20369;-63
2023/12/29 01:30:35;;;;;;;7.17;3.00;;;;;;;;;;5069805;28;20040;-64
2023/12/29 01:33:00;;;;;;;7.85;2.88;;;;;;;;;;5059332;28;20022;-64
2023/12/29 01:35:25;;;;;;;6.55;2.88;;;;;;;;;;5060100;28;20100;-62
2023/12/29 01:37:50;;;;;;;7.67;2.67;;;;;;;;;;5065766;28;20028;-65
2023/12/29 01:40:16;;;;;;;7.97;3.00;;;;;;;;;;5070474;28;20028;-62
2023/12/29 01:42:41;;;;;;;5.68;2.53;;;;;;;;;;5069533;28;20035;-63
2023/12/29 01:45:13;;;;;;;5.88;2.30;;;;;;;;;;5059913;28;20021;-61
2023/12/29 01:47:38;;;;;;;7.07;2.35;;;;;;;;;;5070313;28;20029;-62
2023/12/29 01:50:04;;;;;;;5.68;2.20;;;;;;;;;;5070513;28;20039;-64
2023/12/29 01:52:29;;;;;;;3.90;1.40;;;;;;;;;;5069062;28;20037;-64
2023/12/29 01:54:54;;;;;;;4.57;1.83;;;;;;;;;;5062926;28;20369;-64
2023/12/29 01:57:20;;;;;;;3.92;1.45;;;;;;;;;;5068450;28;20021;-64
2023/12/29 01:59:46;;;;;;;3.85;1.27;;;;;;;;;;5070325;28;20388;-65
2023/12/29 02:02:11;;;;;;;4.43;1.40;;;;;;;;;;5070257;28;20016;-62
2023/12/29 02:04:36;;;;;;;3.00;1.00;;;;;;;;;;5070884;28;20476;-61
2023/12/29 02:07:02;;;;;;;2.53;0.90;;;;;;;;;;5071713;28;20099;-64
2023/12/29 02:09:27;;;;;;;2.92;0.90;;;;;;;;;;5071350;28;20020;-64
2023/12/29 02:11:52;;;;;;;2.15;0.70;;;;;;;;;;5071534;28;20021;-64
2023/12/29 02:14:18;;;;;;;1.95;0.60;;;;;;;;;;5082101;28;20036;-65
2023/12/29 02:16:57;;;;;;;2.63;0.77;;;;;;;;;;5066505;28;20565;-64
2023/12/29 02:19:41;;;;;;;1.98;0.70;;;;;;;;;;5072882;28;20638;-64
2023/12/29 02:22:09;;;;;;;1.42;0.52;;;;;;;;;;5066100;28;20021;-64
2023/12/29 02:24:37;;;;;;;2.63;0.57;;;;;;;;;;5070477;28;20036;-64
2023/12/29 02:27:07;;;;;;;1.30;0.47;;;;;;;;;;5062518;28;20032;-64
2023/12/29 02:29:32;;;;;;;1.85;0.60;;;;;;;;;;5060950;28;20483;-64
2023/12/29 02:31:59;;;;;;;1.85;0.50;;;;;;;;;;5066056;28;20102;-61
2023/12/29 02:34:24;;;;;;;1.48;0.57;;;;;;;;;;5058641;28;20017;-61
2023/12/29 02:36:50;;;;;;;1.60;0.60;;;;;;;;;;5070644;28;20020;-64
2023/12/29 02:39:16;;;;;;;3.67;0.60;;;;;;;;;;5062137;28;20091;-62
2023/12/29 02:41:41;;;;;;;2.40;0.60;;;;;;;;;;5070035;28;20021;-64
2023/12/29 02:44:06;;;;;;;1.50;0.57;;;;;;;;;;5068478;28;20099;-62
2023/12/29 02:46:31;;;;;;;2.33;0.60;;;;;;;;;;5070529;28;20027;-62
2023/12/29 02:48:56;;;;;;;1.67;0.70;;;;;;;;;;5071076;28;20104;-64
2023/12/29 02:51:21;;;;;;;3.10;0.70;;;;;;;;;;5071215;28;20093;-68
2023/12/29 02:53:48;;;;;;;2.20;0.70;;;;;;;;;;5069993;28;20476;-63
2023/12/29 02:56:13;;;;;;;3.60;1.30;;;;;;;;;;5055542;28;20052;-64
2023/12/29 02:58:39;;;;;;;3.30;1.20;;;;;;;;;;5068941;28;20053;-64
2023/12/29 03:01:04;;;;;;;3.38;1.20;;;;;;;;;;5070228;28;20032;-64
2023/12/29 03:03:29;;;;;;;4.55;1.30;;;;;;;;;;5069950;28;20040;-64
2023/12/29 03:05:54;;;;;;;2.70;1.00;;;;;;;;;;5059305;28;20059;-64
2023/12/29 03:08:19;;;;;;;4.03;1.30;;;;;;;;;;5063741;28;20020;-64
2023/12/29 03:10:44;;;;;;;3.93;1.47;;;;;;;;;;5068312;28;20044;-62
2023/12/29 03:13:10;;;;;;;3.78;1.35;;;;;;;;;;5056784;28;20079;-65
2023/12/29 03:15:35;;;;;;;4.90;1.35;;;;;;;;;;5053959;28;20062;-64
2023/12/29 03:18:00;;;;;;;3.58;1.45;;;;;;;;;;5068836;28;20020;-64
2023/12/29 03:20:25;;;;;;;4.30;1.70;;;;;;;;;;5064535;28;20037;-64
2023/12/29 03:22:50;;;;;;;3.87;1.37;;;;;;;;;;5053627;28;20064;-62
2023/12/29 03:25:15;;;;;;;3.42;1.17;;;;;;;;;;5058452;28;20040;-64
2023/12/29 03:27:40;;;;;;;3.70;1.30;;;;;;;;;;5073829;28;20052;-65
2023/12/29 03:30:06;;;;;;;4.53;1.20;;;;;;;;;;5063828;28;20036;-62
2023/12/29 03:32:31;;;;;;;4.15;1.40;;;;;;;;;;5072000;28;20578;-64
2023/12/29 03:34:56;;;;;;;3.33;1.25;;;;;;;;;;5053732;28;20028;-63
2023/12/29 03:37:21;;;;;;;6.07;1.50;;;;;;;;;;5053931;28;20568;-64
2023/12/29 03:39:46;;;;;;;4.03;1.13;;;;;;;;;;5061854;28;20016;-64
2023/12/29 03:42:11;;;;;;;3.58;1.30;;;;;;;;;;5067055;28;20032;-64
2023/12/29 03:44:37;;;;;;;3.65;1.10;;;;;;;;;;5070812;28;20494;-64
2023/12/29 03:47:02;;;;;;;3.83;1.40;;;;;;;;;;5073454;28;20020;-64
2023/12/29 03:49:27;;;;;;;3.93;1.40;;;;;;;;;;5067653;28;20025;-64
2023/12/29 03:51:52;;;;;;;4.28;1.20;;;;;;;;;;5065595;28;20029;-64
2023/12/29 03:54:19;;;;;;;3.75;1.33;;;;;;;;;;5060230;28;20023;-64
2023/12/29 03:56:44;;;;;;;5.25;1.40;;;;;;;;;;5073771;28;20036;-63
2023/12/29 03:59:09;;;;;;;3.25;1.30;;;;;;;;;;5062393;28;20123;-66
2023/12/29 04:01:35;;;;;;;3.17;1.17;;;;;;;;;;5068830;28;20032;-64
2023/12/29 04:04:00;;;;;;;3.27;1.03;;;;;;;;;;5068331;28;20013;-64
2023/12/29 04:06:25;;;;;;;3.03;0.87;;;;;;;;;;5059982;28;20032;-62
2023/12/29 04:08:50;;;;;;;3.63;1.10;;;;;;;;;;5067691;28;20048;-63
2023/12/29 04:11:15;;;;;;;3.20;0.90;;;;;;;;;;5084881;28;20032;-64
2023/12/29 04:13:40;;;;;;;3.03;0.80;;;;;;;;;;5066657;28;20017;-62
2023/12/29 04:16:06;;;;;;;1.63;0.70;;;;;;;;;;5088625;28;20024;-64
2023/12/29 04:18:31;;;;;;;2.15;0.70;;;;;;;;;;5075620;28;20025;-65
2023/12/29 04:20:56;;;;;;;2.05;0.50;;;;;;;;;;5072787;28;20032;-65
2023/12/29 04:23:21;;;;;;;1.83;0.70;;;;;;;;;;5071096;28;20399;-64
2023/12/29 04:25:46;;;;;;;1.67;0.67;;;;;;;;;;5073124;28;20078;-64
2023/12/29 04:28:11;;;;;;;1.87;0.70;;;;;;;;;;5072358;28;20032;-64
2023/12/29 04:30:37;;;;;;;2.03;0.60;;;;;;;;;;5070670;28;20036;-64
2023/12/29 04:33:02;;;;;;;1.57;0.60;;;;;;;;;;5063582;28;20091;-64
2023/12/29 04:35:27;;;;;;;3.53;1.07;;;;;;;;;;5051306;28;20439;-64
2023/12/29 04:37:52;;;;;;;1.80;0.70;;;;;;;;;;5060018;28;20421;-64
2023/12/29 04:40:17;;;;;;;2.00;0.63;;;;;;;;;;5068818;28;20430;-65
2023/12/29 04:42:43;;;;;;;2.37;0.60;;;;;;;;;;5071977;28;20050;-65
2023/12/29 04:45:08;;;;;;;3.13;0.70;;;;;;;;;;5071260;28;20103;-65
2023/12/29 04:47:33;;;;;;;1.88;0.65;;;;;;;;;;5053924;28;20044;-65
2023/12/29 04:49:59;;;;;;;2.22;0.70;;;;;;;;;;5067555;28;20036;-65
2023/12/29 04:52:24;;;;;;;3.13;0.73;;;;;;;;;;5071665;28;20415;-65
2023/12/29 04:54:49;;;;;;;3.72;0.80;;;;;;;;;;5070770;28;20032;-64
2023/12/29 04:57:14;;;;;;;3.10;0.70;;;;;;;;;;5072445;28;20074;-65
2023/12/29 04:59:39;;;;;;;3.47;0.80;;;;;;;;;;5064070;28;20020;-64
2023/12/29 05:02:04;;;;;;;2.23;0.87;;;;;;;;;;5064659;28;20021;-64
2023/12/29 05:04:30;;;;;;;1.67;0.63;;;;;;;;;;5061710;28;20024;-64
2023/12/29 05:06:55;;;;;;;2.37;0.80;;;;;;;;;;5058457;28;20017;-64
2023/12/29 05:09:20;;;;;;;2.60;0.82;;;;;;;;;;5072260;28;20027;-64
2023/12/29 05:11:45;;;;;;;1.95;0.70;;;;;;;;;;5070818;28;20032;-64
2023/12/29 05:14:10;;;;;;;2.60;0.90;;;;;;;;;;5073172;28;20017;-64
2023/12/29 05:16:36;;;;;;;2.43;0.73;;;;;;;;;;5079108;28;20016;-64
2023/12/29 05:19:01;;;;;;;2.83;0.70;;;;;;;;;;5078076;28;20086;-64
2023/12/29 05:21:26;;;;;;;2.70;0.70;;;;;;;;;;5058251;28;20035;-64
2023/12/29 05:23:51;;;;;;;2.97;0.90;;;;;;;;;;5069434;28;20024;-64
2023/12/29 05:26:17;;;;;;;3.30;0.90;;;;;;;;;;5072147;28;20032;-65
2023/12/29 05:28:42;;;;;;;4.10;1.63;;;;;;;;;;5070307;28;20389;-64
2023/12/29 05:31:08;;;;;;;2.00;0.70;;;;;;;;;;5072717;28;20075;-64
2023/12/29 05:33:33;;;;;;;2.97;0.90;;;;;;;;;;5062706;28;20029;-65
2023/12/29 05:35:58;;;;;;;2.88;0.90;;;;;;;;;;5068292;28;20170;-64
2023/12/29 05:38:24;;;;;;;2.95;0.90;;;;;;;;;;5070670;28;20052;-64
2023/12/29 05:40:49;;;;;;;2.57;1.00;;;;;;;;;;5071527;28;20021;-64
2023/12/29 05:43:15;;;;;;;2.85;0.90;;;;;;;;;;5067228;28;20435;-63
2023/12/29 05:45:40;;;;;;;3.27;0.90;;;;;;;;;;5068951;28;20032;-64
2023/12/29 05:48:05;;;;;;;2.50;0.90;;;;;;;;;;5070825;28;21000;-64
2023/12/29 05:50:30;;;;;;;2.47;0.80;;;;;;;;;;5068035;28;20052;-65
2023/12/29 05:52:56;;;;;;;3.15;0.95;;;;;;;;;;5062741;28;20084;-65
2023/12/29 05:55:21;;;;;;;2.85;1.00;;;;;;;;;;5066363;28;20025;-64
2023/12/29 05:57:46;;;;;;;2.80;0.97;;;;;;;;;;5067189;28;20400;-64
2023/12/29 06:00:14;;;;;;;2.53;0.80;;;;;;;;;;5062091;28;20106;-64
2023/12/29 06:02:43;;;;;;;2.25;0.80;;;;;;;;;;5056594;28;20023;-65
2023/12/29 06:05:10;;;;;;;3.00;0.95;;;;;;;;;;5055548;28;20090;-65
2023/12/29 06:07:35;;;;;;;2.75;1.00;;;;;;;;;;5049215;28;20048;-64
2023/12/29 06:10:00;;;;;;;3.55;0.90;;;;;;;;;;5066053;28;20066;-64
2023/12/29 06:12:25;;;;;;;2.85;0.90;;;;;;;;;;5060636;28;20032;-64
2023/12/29 06:14:50;;;;;;;2.80;0.90;;;;;;;;;;5058341;28;20024;-64
2023/12/29 06:17:15;;;;;;;2.70;0.90;;;;;;;;;;5062643;28;20074;-63
2023/12/29 06:19:41;;;;;;;2.50;1.00;;;;;;;;;;5066918;28;20131;-64
2023/12/29 06:22:11;;;;;;;3.30;0.90;;;;;;;;;;5061153;28;20036;-64
2023/12/29 06:24:36;;;;;;;3.80;0.90;;;;;;;;;;5045856;28;20027;-64
2023/12/29 06:27:01;;;;;;;2.22;0.95;;;;;;;;;;5051791;28;20032;-65
2023/12/29 06:29:27;;;;;;;3.03;1.13;;;;;;;;;;5054962;28;20032;-64
2023/12/29 06:31:52;;;;;;;3.05;0.80;;;;;;;;;;5059586;28;20032;-64
2023/12/29 06:34:17;;;;;;;3.55;0.98;;;;;;;;;;5055805;28;20044;-64
2023/12/29 06:36:42;;;;;;;2.30;0.80;;;;;;;;;;5055084;28;20028;-64
2023/12/29 06:39:07;;;;;;;2.53;0.90;;;;;;;;;;5059111;28;20028;-63
2023/12/29 06:41:32;;;;;;;2.30;0.93;;;;;;;;;;5066293;28;20744;-63
2023/12/29 06:43:57;;;;;;;1.95;0.70;;;;;;;;;;5069707;28;20027;-63
2023/12/29 06:46:23;;;;;;;1.90;0.70;;;;;;;;;;5068166;28;20060;-68
2023/12/29 06:48:49;;;;;;;2.03;0.80;;;;;;;;;;5069372;28;20427;-63
2023/12/29 06:51:18;;;;;;;3.55;0.93;;;;;;;;;;5068375;28;20424;-63
2023/12/29 06:53:43;;;;;;;2.72;0.90;;;;;;;;;;5063351;28;20017;-63
2023/12/29 06:56:12;;;;;;;4.13;0.83;;;;;;;;;;5070114;28;20345;-63
2023/12/29 06:58:37;;;;;;;3.08;0.90;;;;;;;;;;5072308;28;20020;-63
2023/12/29 07:01:03;;;;;;;2.00;0.75;;;;;;;;;;5069565;28;20020;-63
2023/12/29 07:03:28;;;;;;;3.55;0.85;;;;;;;;;;5074009;28;20029;-64
2023/12/29 07:05:53;;;;;;;2.47;0.80;;;;;;;;;;5085891;28;20081;-63
2023/12/29 07:08:18;;;;;;;3.20;1.10;;;;;;;;;;5086501;28;20020;-63
2023/12/29 07:10:43;;;;;;;2.72;0.90;;;;;;;;;;5065096;28;20032;-64
2023/12/29 07:13:09;;;;;;;3.45;0.90;;;;;;;;;;5070157;28;20503;-63
2023/12/29 07:15:34;;;;;;;2.73;1.00;;;;;;;;;;5071235;28;20012;-63
2023/12/29 07:17:59;;;;;;;4.50;1.50;;;;;;;;;;5074767;28;20013;-63
2023/12/29 07:20:24;;;;;;;3.40;0.98;;;;;;;;;;5075202;28;20112;-64
2023/12/29 07:22:49;;;;;;;3.40;1.10;;;;;;;;;;5069653;28;20013;-64
2023/12/29 07:25:14;;;;;;;2.93;0.80;;;;;;;;;;5066872;28;20024;-64
2023/12/29 07:27:40;;;;;;;3.23;1.00;;;;;;;;;;5062905;28;20012;-64
2023/12/29 07:30:05;;;;;;;4.53;1.10;;;;;;;;;;5069789;28;20483;-63
2023/12/29 07:32:30;;;;;;;2.92;1.00;;;;;;;;;;5057721;28;20074;-63
2023/12/29 07:34:57;;;;;;;4.18;0.98;;;;;;;;;;5069812;28;20091;-64
2023/12/29 07:37:22;;;;;;;3.83;1.00;;;;;;;;;;5069661;28;21164;-64
2023/12/29 07:39:48;;;;;;;3.00;1.00;;;;;;;;;;5069703;28;20029;-64
2023/12/29 07:42:13;;;;;;;2.92;1.00;;;;;;;;;;5064454;28;20120;-63
2023/12/29 07:44:39;;;;;;;2.70;0.88;;;;;;;;;;5065385;28;20100;-63
2023/12/29 07:47:04;;;;;;;3.38;1.10;;;;;;;;;;5055698;28;20073;-63
2023/12/29 07:49:29;;;;;;;3.33;1.00;;;;;;;;;;5059221;28;20021;-64
2023/12/29 07:51:55;;;;;;;3.63;1.10;;;;;;;;;;5058115;28;20412;-65
2023/12/29 07:54:20;;;;;;;3.60;1.10;;;;;;;;;;5066121;28;20020;-65
2023/12/29 07:56:45;;;;;;;3.47;0.90;;;;;;;;;;5064298;28;20028;-62
2023/12/29 07:59:10;;;;;;;3.22;0.93;;;;;;;;;;5064611;28;20060;-65
2023/12/29 08:01:36;;;;;;;3.00;0.87;;;;;;;;;;5054967;28;20503;-63
2023/12/29 08:04:02;;;;;;;3.10;0.90;;;;;;;;;;5064103;28;20063;-63
2023/12/29 08:06:27;;;;;;;3.10;1.05;;;;;;;;;;5060169;28;20036;-63
2023/12/29 08:08:54;;;;;;;4.38;1.10;;;;;;;;;;5062918;28;20119;-65
2023/12/29 08:11:19;;;;;;;;;;;;;;;;;;5072629;28;20567;-65
2023/12/29 08:13:44;;;;;;;2.17;0.80;;;;;;;;;;5071454;28;20392;-63
2023/12/29 08:16:10;;;;;;;2.90;1.00;;;;;;;;;;5067498;28;20043;-63
2023/12/29 08:18:35;;;;;;;2.80;0.80;;;;;;;;;;5059316;28;20042;-65
2023/12/29 08:21:00;;;;;;;3.23;1.00;;;;;;;;;;5066240;28;20036;-64
2023/12/29 08:23:28;;;;;;;2.97;0.90;;;;;;;;;;5051992;28;20035;-65
2023/12/29 08:25:53;;;;;;;3.25;1.00;;;;;;;;;;5064067;28;20540;-64
2023/12/29 08:28:18;;;;;;;3.30;1.00;;;;;;;;;;5066438;28;20063;-65
2023/12/29 08:30:45;;;;;;;3.45;1.02;;;;;;;;;;5057840;28;20229;-64
2023/12/29 08:33:12;;;;;;;;;;;;;;;;;;5066589;28;20098;-65
2023/12/29 08:35:37;;;;;;;3.08;0.80;;;;;;;;;;5063128;28;19923;-64
2023/12/29 08:38:02;;;;;;;3.50;0.90;;;;;;;;;;5061597;28;20028;-65
2023/12/29 08:40:28;;;;;;;2.03;0.80;;;;;;;;;;5057825;28;20079;-64
2023/12/29 08:42:54;;;;;;;2.67;0.90;;;;;;;;;;5053066;28;20067;-65
2023/12/29 08:45:19;;;;;;;4.13;1.00;;;;;;;;;;5053835;28;20067;-64
2023/12/29 08:47:45;;;;;;;2.28;1.00;;;;;;;;;;5067570;28;20460;-64
2023/12/29 08:50:10;;;;;;;4.07;0.90;;;;;;;;;;5067104;28;20062;-65
2023/12/29 08:52:36;;;;;;;3.50;1.07;;;;;;;;;;5067474;28;20470;-65
2023/12/29 08:55:01;;;;;;;3.80;1.20;;;;;;;;;;5059220;28;20025;-65
2023/12/29 08:57:26;;;;;;;3.77;0.90;;;;;;;;;;5063366;28;20039;-65
2023/12/29 08:59:51;;;;;;;2.80;0.95;;;;;;;;;;5068807;28;20423;-64
2023/12/29 09:02:16;;;;;;;2.28;0.70;;;;;;;;;;5068642;28;20013;-65
2023/12/29 09:04:41;;;;;;;3.38;0.80;;;;;;;;;;5056904;28;20056;-65
2023/12/29 09:07:07;;;;;;;2.93;0.90;;;;;;;;;;5070371;28;20546;-64
2023/12/29 09:09:32;;;;;;;3.60;1.10;;;;;;;;;;5072400;28;20020;-64
2023/12/29 09:11:57;;;;;;;4.10;1.00;;;;;;;;;;5071584;28;20032;-64
2023/12/29 09:14:22;;;;;;;4.25;0.90;;;;;;;;;;5070178;28;20438;-64
2023/12/29 09:16:47;;;;;;;2.53;0.95;;;;;;;;;;5071015;28;20445;-64
2023/12/29 09:19:13;;;;;;;2.90;0.93;;;;;;;;;;5067915;28;20035;-65
2023/12/29 09:21:38;;;;;;;2.83;1.00;;;;;;;;;;5061817;28;20016;-65
2023/12/29 09:24:04;;;;;;;3.37;1.00;;;;;;;;;;5069609;28;20063;-65
2023/12/29 09:26:29;;;;;;;3.40;0.90;;;;;;;;;;5071270;28;20032;-64
2023/12/29 09:28:54;;;;;;;3.15;0.82;;;;;;;;;;5069377;28;20051;-64
2023/12/29 09:31:19;;;;;;;2.75;0.90;;;;;;;;;;5070868;28;20113;-64
2023/12/29 09:33:45;;;;;;;2.75;0.88;;;;;;;;;;5066905;28;20033;-65
2023/12/29 09:36:10;;;;;;;3.72;1.00;;;;;;;;;;5071174;28;20404;-65
2023/12/29 09:38:35;;;;;;;3.17;0.88;;;;;;;;;;5069450;28;20128;-64
2023/12/29 09:41:04;;;;;;;4.10;0.90;;;;;;;;;;5070059;28;20028;-65
2023/12/29 09:43:33;;;;;;;2.25;0.80;;;;;;;;;;5070970;28;20078;-64
2023/12/29 09:45:58;;;;;;;2.60;0.90;;;;;;;;;;5071181;28;20473;-64
2023/12/29 09:48:26;;;;;;;4.50;0.90;;;;;;;;;;5073165;28;20050;-65
2023/12/29 09:50:52;;;;;;;3.13;0.98;;;;;;;;;;5082901;28;20035;-66
2023/12/29 09:53:19;;;;;;;4.90;0.90;;;;;;;;;;5080550;28;20035;-65
2023/12/29 09:55:46;;;;;;;2.58;0.90;;;;;;;;;;5076546;28;20116;-65
2023/12/29 09:58:12;;;;;;;2.85;0.80;;;;;;;;;;5073990;28;20068;-65
2023/12/29 10:00:38;;;;;;;4.60;0.90;;;;;;;;;;5075927;28;20043;-65
2023/12/29 10:03:04;;;;;;;2.75;0.80;;;;;;;;;;5073445;28;20091;-65
2023/12/29 10:05:29;;;;;;;3.65;0.90;;;;;;;;;;5068844;28;20088;-65
2023/12/29 10:07:56;;;;;;;2.50;0.83;;;;;;;;;;5065438;28;20805;-65
2023/12/29 10:10:24;;;;;;;3.60;1.20;;;;;;;;;;5068741;28;20206;-63
2023/12/29 10:12:49;;;;;;;2.90;0.93;;;;;;;;;;5070361;28;20020;-65
2023/12/29 10:15:17;;;;;;;2.65;0.90;;;;;;;;;;5069412;28;20390;-65
2023/12/29 10:17:45;;;;;;;3.45;0.90;;;;;;;;;;5068524;28;20035;-65
2023/12/29 10:20:17;;;;;;;3.30;0.70;;;;;;;;;;5067352;28;20031;-65
2023/12/29 10:22:43;;;;;;;;;;;;;;;;;;5064602;28;20024;-65
2023/12/29 10:25:08;;;;;;;3.08;0.90;;;;;;;;;;5070803;28;19915;-65
2023/12/29 10:27:34;;;;;;;3.80;1.00;;;;;;;;;;5070847;28;20348;-64
2023/12/29 10:29:59;;;;;;;4.90;0.90;;;;;;;;;;5059182;28;20020;-65
2023/12/29 10:32:28;;;;;;;3.00;0.80;;;;;;;;;;5067225;28;20021;-65
2023/12/29 10:35:06;;;;;;;2.92;0.95;;;;;;;;;;5062064;28;20504;-63
2023/12/29 10:37:32;;;;;;;3.97;1.00;;;;;;;;;;5071032;28;20013;-64
2023/12/29 10:39:57;;;;;;;3.70;0.80;;;;;;;;;;5070901;28;20029;-64
2023/12/29 10:42:22;;;;;;;2.20;0.90;;;;;;;;;;5067607;28;20489;-64
2023/12/29 10:44:47;;;;;;;3.17;0.80;;;;;;;;;;5071235;28;20024;-65
2023/12/29 10:47:12;;;;;;;2.28;0.70;;;;;;;;;;5072857;28;20025;-64
2023/12/29 10:49:39;;;;;;;3.27;0.87;;;;;;;;;;5072489;28;20048;-64
2023/12/29 10:52:11;;;;;;;3.42;0.90;;;;;;;;;;5070868;28;20913;-64
2023/12/29 10:54:36;;;;;;;3.42;1.05;;;;;;;;;;5071711;28;20109;-64
2023/12/29 10:57:02;;;;;;;4.28;1.05;;;;;;;;;;5069728;28;20067;-65
2023/12/29 10:59:27;;;;;;;3.22;1.00;;;;;;;;;;5071402;28;20364;-64
2023/12/29 11:01:53;;;;;;;3.63;1.00;;;;;;;;;;5070619;28;20021;-64
2023/12/29 11:04:21;;;;;;;4.72;0.90;;;;;;;;;;5070792;28;20013;-63
2023/12/29 11:06:47;;;;;;;3.60;0.98;;;;;;;;;;5070859;28;20043;-64
2023/12/29 11:09:12;;;;;;;2.95;0.98;;;;;;;;;;5071265;28;20072;-64
2023/12/29 11:11:37;;;;;;;6.33;1.00;;;;;;;;;;5069492;28;20377;-64
2023/12/29 11:14:03;;;;;;;3.97;0.95;;;;;;;;;;5068251;28;20472;-64
2023/12/29 11:16:29;;;;;;;2.35;0.88;;;;;;;;;;5064498;28;20056;-63
2023/12/29 11:18:55;;;;;;;2.78;0.80;;;;;;;;;;5056142;28;20048;-64
2023/12/29 11:21:21;;;;;;;;;;;;;;;;;;5070398;28;20567;-65
2023/12/29 11:23:46;;;;;;;3.35;0.77;;;;;;;;;;5069960;28;20386;-65
2023/12/29 11:26:12;;;;;;;3.15;0.80;;;;;;;;;;5070186;28;20392;-63
2023/12/29 11:28:37;;;;;;;2.93;1.00;;;;;;;;;;5070465;28;20032;-63
2023/12/29 11:31:03;;;;;;;6.28;0.90;;;;;;;;;;5073012;28;20541;-66
2023/12/29 11:33:31;;;;;;;2.55;0.85;;;;;;;;;;5072270;28;20029;-65
2023/12/29 11:35:59;;;;;;;2.88;0.93;;;;;;;;;;5069432;28;20024;-64
2023/12/29 11:38:43;;;;;;;5.20;1.00;;;;;;;;;;5073396;28;20042;-65
2023/12/29 11:41:13;;;;;;;4.25;1.05;;;;;;;;;;5073074;28;20031;-64
2023/12/29 11:43:38;;;;;;;3.08;1.00;;;;;;;;;;5073411;28;20017;-64
2023/12/29 11:46:04;;;;;;;3.53;0.90;;;;;;;;;;5073330;28;20024;-64
2023/12/29 11:48:48;;;;;;;4.07;1.00;;;;;;;;;;5057752;28;20108;-64
2023/12/29 11:51:45;;;;;;;4.10;0.93;;;;;;;;;;5071339;28;20021;-64
2023/12/29 11:54:21;;;;;;;3.28;0.93;;;;;;;;;;5054778;28;20514;-65
2023/12/29 11:56:46;;;;;;;2.35;0.63;;;;;;;;;;5071440;28;20037;-65
2023/12/29 11:59:12;;;;;;;3.63;0.87;;;;;;;;;;5069812;28;20161;-64
2023/12/29 12:01:37;;;;;;;2.10;0.70;;;;;;;;;;5073379;28;20782;-64
2023/12/29 12:04:02;;;;;;;2.75;0.90;;;;;;;;;;5072664;28;20027;-63
2023/12/29 12:06:40;;;;;;;2.63;0.73;;;;;;;;;;5073100;28;20424;-64
2023/12/29 12:09:21;;;;;;;2.67;0.88;;;;;;;;;;5072947;28;20024;-65
2023/12/29 12:11:49;;;;;;;4.55;0.80;;;;;;;;;;5071129;28;20103;-63
2023/12/29 12:14:34;;;;;;;3.63;0.90;;;;;;;;;;5069857;28;20017;-65
2023/12/29 12:16:59;;;;;;;3.92;0.93;;;;;;;;;;5072438;28;20024;-65
2023/12/29 12:19:27;;;;;;;2.25;0.70;;;;;;;;;;5072633;28;20036;-65
2023/12/29 12:21:53;;;;;;;2.15;0.73;;;;;;;;;;5072328;28;20476;-64
2023/12/29 12:24:19;;;;;;;2.42;0.70;;;;;;;;;;5072484;28;20063;-64
2023/12/29 12:26:44;;;;;;;2.15;0.70;;;;;;;;;;5066119;28;20067;-65
2023/12/29 12:29:09;;;;;;;3.03;0.90;;;;;;;;;;5060806;28;20406;-65
2023/12/29 12:31:34;;;;;;;3.00;0.77;;;;;;;;;;5072089;28;20028;-65
2023/12/29 12:34:00;;;;;;;2.87;0.80;;;;;;;;;;5060971;28;20146;-65
2023/12/29 12:36:26;;;;;;;4.95;0.93;;;;;;;;;;5063273;28;20025;-65
2023/12/29 12:38:55;;;;;;;5.78;1.00;;;;;;;;;;5074490;28;20095;-65
2023/12/29 12:41:20;;;;;;;4.25;1.02;;;;;;;;;;5072562;28;20115;-65
2023/12/29 12:43:50;;;;;;;4.72;1.00;;;;;;;;;;5074341;28;20058;-65
2023/12/29 12:46:15;;;;;;;2.78;0.95;;;;;;;;;;5076695;28;20017;-65
2023/12/29 12:48:43;;;;;;;2.93;0.90;;;;;;;;;;5073755;28;20062;-64
2023/12/29 12:51:08;;;;;;;4.45;1.00;;;;;;;;;;5061653;28;20040;-65
2023/12/29 12:53:33;;;;;;;4.43;0.97;;;;;;;;;;5072928;28;20021;-65
2023/12/29 12:55:58;;;;;;;2.80;0.70;;;;;;;;;;5072223;28;20430;-64
2023/12/29 12:58:25;;;;;;;2.27;0.70;;;;;;;;;;5067951;28;20486;-65
2023/12/29 13:00:51;;;;;;;3.60;0.77;;;;;;;;;;5071412;28;20500;-65
2023/12/29 13:03:16;;;;;;;2.88;0.80;;;;;;;;;;5070302;28;20017;-65
2023/12/29 13:05:42;;;;;;;2.67;0.77;;;;;;;;;;5071892;28;20028;-65
2023/12/29 13:08:07;;;;;;;2.65;0.82;;;;;;;;;;5068145;28;20019;-65
2023/12/29 13:10:32;;;;;;;3.05;0.90;;;;;;;;;;5071221;28;20139;-65
2023/12/29 13:12:58;;;;;;;2.70;0.80;;;;;;;;;;5071591;28;20103;-65
2023/12/29 13:15:23;;;;;;;2.55;0.90;;;;;;;;;;5059000;28;20457;-65
2023/12/29 13:17:54;;;;;;;2.45;0.75;;;;;;;;;;5065355;28;20092;-65
2023/12/29 13:20:20;;;;;;;3.20;0.82;;;;;;;;;;5072011;28;20053;-65
2023/12/29 13:22:51;;;;;;;2.63;0.80;;;;;;;;;;5072123;28;20017;-65
2023/12/29 13:25:20;;;;;;;2.40;0.80;;;;;;;;;;5072343;28;20045;-65
2023/12/29 13:27:46;;;;;;;2.42;0.70;;;;;;;;;;5072538;28;20040;-65
2023/12/29 13:30:14;;;;;;;2.13;0.70;;;;;;;;;;5064059;28;20104;-65
2023/12/29 13:32:41;;;;;;;1.90;0.60;;;;;;;;;;5071829;28;20021;-65
2023/12/29 13:35:09;;;;;;;3.85;0.93;;;;;;;;;;5061783;28;20079;-65
2023/12/29 13:37:44;;;;;;;2.03;0.63;;;;;;;;;;5062865;28;20023;-65
2023/12/29 13:40:28;;;;;;;3.35;0.70;;;;;;;;;;5071103;28;20104;-65
2023/12/29 13:42:55;;;;;;;2.03;0.70;;;;;;;;;;5070902;28;20053;-65
2023/12/29 13:45:20;;;;;;;2.90;0.75;;;;;;;;;;5071476;28;20112;-65
2023/12/29 13:47:46;;;;;;;2.00;0.80;;;;;;;;;;5073236;28;20463;-65
2023/12/29 13:50:11;;;;;;;2.83;0.80;;;;;;;;;;5069602;28;20020;-65
2023/12/29 13:52:37;;;;;;;3.67;0.95;;;;;;;;;;5070597;28;20384;-65
2023/12/29 13:55:03;;;;;;;2.10;0.77;;;;;;;;;;5070286;28;20016;-63
2023/12/29 13:57:34;;;;;;;2.55;0.60;;;;;;;;;;5071278;28;20016;-64
2023/12/29 14:00:15;;;;;;;3.13;0.88;;;;;;;;;;5071210;28;20103;-64
2023/12/29 14:02:40;;;;;;;2.70;0.90;;;;;;;;;;5071071;28;20158;-64
2023/12/29 14:05:12;;;;;;;2.50;0.80;;;;;;;;;;5070403;28;20491;-64
2023/12/29 14:07:39;;;;;;;4.47;0.98;;;;;;;;;;5064017;28;20115;-64
2023/12/29 14:10:05;;;;;;;4.82;0.75;;;;;;;;;;5071913;28;20019;-64
2023/12/29 14:12:30;;;;;;;3.60;0.80;;;;;;;;;;5070397;28;20024;-64
2023/12/29 14:15:02;;;;;;;2.63;0.70;;;;;;;;;;5070810;28;20017;-64
2023/12/29 14:17:28;;;;;;;2.55;0.60;;;;;;;;;;5069747;28;20025;-65
2023/12/29 14:19:53;;;;;;;;;;;;;;;;;;5071327;28;20020;-65
2023/12/29 14:22:22;;;;;;;3.47;0.95;;;;;;;;;;5068056;28;20003;-65
2023/12/29 14:24:59;;;;;;;4.53;0.90;;;;;;;;;;5070356;28;20037;-65
2023/12/29 14:27:24;;;;;;;2.30;0.60;;;;;;;;;;5069115;28;20025;-66
2023/12/29 14:29:49;;;;;;;3.53;0.80;;;;;;;;;;5063299;28;20040;-66
2023/12/29 14:32:15;;;;;;;2.43;0.60;;;;;;;;;;5066793;28;20039;-64
2023/12/29 14:34:40;;;;;;;4.15;0.93;;;;;;;;;;5069471;28;20477;-64
2023/12/29 14:37:05;;;;;;;2.13;0.60;;;;;;;;;;5063850;28;20036;-64
2023/12/29 14:39:31;;;;;;;2.17;0.60;;;;;;;;;;5058173;28;20029;-64